Little Rock, Arkansas
Current Conditions -  °F | °C
As of 8:53 PM on Saturday 25 Oct 2014 (Local Time) from KLIT Reporting Station
Clear Clear  
Wind Chill: 72°   Ceiling: Unl
Heat Index: 72°   Visibility: 10mi
Dew Point: 64°   Wind: 7mph
Humidity: 76%   Direction: 240°WSW
Pressure: 30.03"   Gusts: NA
Location:  34.75°N, 92.27°W
Report Text: KLIT 260153Z 24006KT 10SM CLR 22/18 A3003 RMK AO2 SLP170 T02220178
Loading
Personal Weather Stations






























Interactive Weather Map New forecast layout! Learn more

10-Day Weather Forecast

Advertisements
Track Severe Weather on mobile